Terminal Aerodrome Forecast
Issued by NWS

Home | Current Version | Previous Version | Graphics & Text | Print | Product List | Glossary On
Versions: 1 2 3 4 5 6 7 8 9 10 11 12 13 14 15 16 17 18 19 20 21 22 23 24 25 26 27 28 29 30 31 32 33 34
000
FTUS43 KLOT 180800 AAA
TAFORD
TAF AMD
KORD 180852Z 1809/1912 03007KT P6SM SCT006 OVC012
      TEMPO 1809/1813 BKN006
     FM181400 VRB03KT 6SM BR BKN012
     FM181600 VRB03KT P6SM BKN020
     FM181800 20004KT P6SM SCT025 SCT100
     FM182200 09008KT P6SM SCT040 BKN200
     FM190100 19006KT P6SM BKN050 BKN100
     FM190400 20007KT P6SM SHRA VCTS SCT035CB BKN050
     FM190700 20010KT P6SM -TSRA SCT035CB BKN040=

USA.gov is the U.S. government's official web portal to all federal, state and local government web resources and services.